sensor_id;sensor_type;location;lat;lon;timestamp;P1;durP1;ratioP1;P2;durP2;ratioP2
18853;SDS011;9556;49.374;19.446;2023-11-22T00:01:03;12.63;;;7.80;;
18853;SDS011;9556;49.374;19.446;2023-11-22T00:03:31;16.10;;;8.52;;
18853;SDS011;9556;49.374;19.446;2023-11-22T00:05:58;13.30;;;7.85;;
18853;SDS011;9556;49.374;19.446;2023-11-22T00:08:26;11.95;;;7.32;;
18853;SDS011;9556;49.374;19.446;2023-11-22T00:10:54;12.63;;;7.70;;
18853;SDS011;9556;49.374;19.446;2023-11-22T00:13:21;12.57;;;7.70;;
18853;SDS011;9556;49.374;19.446;2023-11-22T00:15:50;12.63;;;7.47;;
18853;SDS011;9556;49.374;19.446;2023-11-22T00:18:17;12.40;;;7.25;;
18853;SDS011;9556;49.374;19.446;2023-11-22T00:20:44;10.73;;;6.72;;
18853;SDS011;9556;49.374;19.446;2023-11-22T00:23:12;12.20;;;6.95;;
18853;SDS011;9556;49.374;19.446;2023-11-22T00:25:39;11.02;;;6.88;;
18853;SDS011;9556;49.374;19.446;2023-11-22T00:28:07;11.57;;;6.90;;
18853;SDS011;9556;49.374;19.446;2023-11-22T00:30:34;10.30;;;6.22;;
18853;SDS011;9556;49.374;19.446;2023-11-22T00:33:02;11.23;;;6.57;;
18853;SDS011;9556;49.374;19.446;2023-11-22T00:35:30;10.48;;;6.57;;
18853;SDS011;9556;49.374;19.446;2023-11-22T00:37:58;10.15;;;6.47;;
18853;SDS011;9556;49.374;19.446;2023-11-22T00:40:25;10.00;;;6.43;;
18853;SDS011;9556;49.374;19.446;2023-11-22T00:42:52;10.15;;;6.10;;
18853;SDS011;9556;49.374;19.446;2023-11-22T00:45:20;9.27;;;5.68;;
18853;SDS011;9556;49.374;19.446;2023-11-22T00:47:47;10.77;;;6.15;;
18853;SDS011;9556;49.374;19.446;2023-11-22T00:50:16;9.10;;;5.82;;
18853;SDS011;9556;49.374;19.446;2023-11-22T00:52:45;9.98;;;6.00;;
18853;SDS011;9556;49.374;19.446;2023-11-22T00:55:12;9.35;;;5.60;;
18853;SDS011;9556;49.374;19.446;2023-11-22T00:57:39;8.25;;;5.03;;
18853;SDS011;9556;49.374;19.446;2023-11-22T01:00:07;8.05;;;5.10;;
18853;SDS011;9556;49.374;19.446;2023-11-22T01:02:36;9.60;;;5.60;;
18853;SDS011;9556;49.374;19.446;2023-11-22T01:05:04;8.00;;;5.07;;
18853;SDS011;9556;49.374;19.446;2023-11-22T01:07:36;8.73;;;5.03;;
18853;SDS011;9556;49.374;19.446;2023-11-22T01:10:03;7.10;;;4.53;;
18853;SDS011;9556;49.374;19.446;2023-11-22T01:12:31;8.80;;;4.88;;
18853;SDS011;9556;49.374;19.446;2023-11-22T01:14:58;7.88;;;4.68;;
18853;SDS011;9556;49.374;19.446;2023-11-22T01:17:25;7.60;;;4.63;;
18853;SDS011;9556;49.374;19.446;2023-11-22T01:19:53;6.82;;;4.53;;
18853;SDS011;9556;49.374;19.446;2023-11-22T01:22:20;8.82;;;5.03;;
18853;SDS011;9556;49.374;19.446;2023-11-22T01:24:48;7.28;;;4.55;;
18853;SDS011;9556;49.374;19.446;2023-11-22T01:27:15;7.40;;;4.57;;
18853;SDS011;9556;49.374;19.446;2023-11-22T01:29:42;6.57;;;4.47;;
18853;SDS011;9556;49.374;19.446;2023-11-22T01:32:10;7.07;;;4.38;;
18853;SDS011;9556;49.374;19.446;2023-11-22T01:34:37;7.05;;;4.35;;
18853;SDS011;9556;49.374;19.446;2023-11-22T01:37:05;6.80;;;4.18;;
18853;SDS011;9556;49.374;19.446;2023-11-22T01:39:32;6.50;;;3.83;;
18853;SDS011;9556;49.374;19.446;2023-11-22T01:42:00;6.07;;;3.90;;
18853;SDS011;9556;49.374;19.446;2023-11-22T01:44:28;6.88;;;3.78;;
18853;SDS011;9556;49.374;19.446;2023-11-22T01:46:55;5.28;;;3.58;;
18853;SDS011;9556;49.374;19.446;2023-11-22T01:49:22;5.50;;;3.72;;
18853;SDS011;9556;49.374;19.446;2023-11-22T01:51:49;6.47;;;3.53;;
18853;SDS011;9556;49.374;19.446;2023-11-22T01:54:17;4.90;;;3.40;;
18853;SDS011;9556;49.374;19.446;2023-11-22T01:56:45;7.05;;;3.83;;
18853;SDS011;9556;49.374;19.446;2023-11-22T01:59:13;8.60;;;3.40;;
18853;SDS011;9556;49.374;19.446;2023-11-22T02:01:41;6.13;;;3.40;;
18853;SDS011;9556;49.374;19.446;2023-11-22T02:04:09;5.15;;;3.35;;
18853;SDS011;9556;49.374;19.446;2023-11-22T02:06:39;5.03;;;3.42;;
18853;SDS011;9556;49.374;19.446;2023-11-22T02:09:06;5.20;;;3.33;;
18853;SDS011;9556;49.374;19.446;2023-11-22T02:11:38;5.07;;;3.35;;
18853;SDS011;9556;49.374;19.446;2023-11-22T02:14:07;4.38;;;2.95;;
18853;SDS011;9556;49.374;19.446;2023-11-22T02:16:36;4.47;;;3.10;;
18853;SDS011;9556;49.374;19.446;2023-11-22T02:19:04;5.18;;;3.08;;
18853;SDS011;9556;49.374;19.446;2023-11-22T02:21:33;4.82;;;2.95;;
18853;SDS011;9556;49.374;19.446;2023-11-22T02:24:02;5.50;;;2.92;;
18853;SDS011;9556;49.374;19.446;2023-11-22T02:26:29;5.10;;;3.28;;
18853;SDS011;9556;49.374;19.446;2023-11-22T02:28:56;4.95;;;3.00;;
18853;SDS011;9556;49.374;19.446;2023-11-22T02:31:24;4.45;;;2.67;;
18853;SDS011;9556;49.374;19.446;2023-11-22T02:33:52;4.22;;;2.50;;
18853;SDS011;9556;49.374;19.446;2023-11-22T02:36:20;4.18;;;2.83;;
18853;SDS011;9556;49.374;19.446;2023-11-22T02:38:49;4.85;;;2.85;;
18853;SDS011;9556;49.374;19.446;2023-11-22T02:41:18;4.90;;;3.08;;
18853;SDS011;9556;49.374;19.446;2023-11-22T02:43:45;3.83;;;2.50;;
18853;SDS011;9556;49.374;19.446;2023-11-22T02:46:12;4.35;;;2.70;;
18853;SDS011;9556;49.374;19.446;2023-11-22T02:48:40;4.18;;;2.58;;
18853;SDS011;9556;49.374;19.446;2023-11-22T02:51:07;3.65;;;2.60;;
18853;SDS011;9556;49.374;19.446;2023-11-22T02:53:35;4.00;;;2.80;;
18853;SDS011;9556;49.374;19.446;2023-11-22T02:56:02;3.38;;;2.30;;
18853;SDS011;9556;49.374;19.446;2023-11-22T02:58:31;3.25;;;2.33;;
18853;SDS011;9556;49.374;19.446;2023-11-22T03:00:58;3.70;;;2.30;;
18853;SDS011;9556;49.374;19.446;2023-11-22T03:03:26;3.75;;;2.20;;
18853;SDS011;9556;49.374;19.446;2023-11-22T03:05:53;3.75;;;2.30;;
18853;SDS011;9556;49.374;19.446;2023-11-22T03:08:20;3.30;;;2.30;;
18853;SDS011;9556;49.374;19.446;2023-11-22T03:10:47;2.97;;;2.00;;
18853;SDS011;9556;49.374;19.446;2023-11-22T03:13:16;2.88;;;2.10;;
18853;SDS011;9556;49.374;19.446;2023-11-22T03:15:45;3.83;;;2.50;;
18853;SDS011;9556;49.374;19.446;2023-11-22T03:18:12;4.38;;;2.25;;
18853;SDS011;9556;49.374;19.446;2023-11-22T03:20:41;3.28;;;2.20;;
18853;SDS011;9556;49.374;19.446;2023-11-22T03:23:08;3.15;;;2.05;;
18853;SDS011;9556;49.374;19.446;2023-11-22T03:25:36;3.10;;;2.00;;
18853;SDS011;9556;49.374;19.446;2023-11-22T03:28:03;4.32;;;2.38;;
18853;SDS011;9556;49.374;19.446;2023-11-22T03:30:31;3.72;;;2.33;;
18853;SDS011;9556;49.374;19.446;2023-11-22T03:33:00;2.97;;;1.80;;
18853;SDS011;9556;49.374;19.446;2023-11-22T03:35:27;2.22;;;1.67;;
18853;SDS011;9556;49.374;19.446;2023-11-22T03:37:55;2.90;;;2.00;;
18853;SDS011;9556;49.374;19.446;2023-11-22T03:40:22;3.20;;;1.80;;
18853;SDS011;9556;49.374;19.446;2023-11-22T03:42:49;2.55;;;1.92;;
18853;SDS011;9556;49.374;19.446;2023-11-22T03:45:17;2.88;;;1.80;;
18853;SDS011;9556;49.374;19.446;2023-11-22T03:47:44;3.53;;;2.00;;
18853;SDS011;9556;49.374;19.446;2023-11-22T03:50:13;2.85;;;1.90;;
18853;SDS011;9556;49.374;19.446;2023-11-22T03:52:40;2.70;;;1.80;;
18853;SDS011;9556;49.374;19.446;2023-11-22T03:55:07;2.78;;;1.75;;
18853;SDS011;9556;49.374;19.446;2023-11-22T03:57:34;2.60;;;1.67;;
18853;SDS011;9556;49.374;19.446;2023-11-22T04:00:02;2.45;;;1.63;;
18853;SDS011;9556;49.374;19.446;2023-11-22T04:02:31;3.30;;;1.80;;
18853;SDS011;9556;49.374;19.446;2023-11-22T04:04:58;2.63;;;1.60;;
18853;SDS011;9556;49.374;19.446;2023-11-22T04:07:27;2.85;;;1.77;;
18853;SDS011;9556;49.374;19.446;2023-11-22T04:09:54;2.65;;;1.67;;
18853;SDS011;9556;49.374;19.446;2023-11-22T04:12:22;2.30;;;1.67;;
18853;SDS011;9556;49.374;19.446;2023-11-22T04:14:50;2.92;;;1.80;;
18853;SDS011;9556;49.374;19.446;2023-11-22T04:17:17;2.85;;;1.80;;
18853;SDS011;9556;49.374;19.446;2023-11-22T04:19:44;2.17;;;1.58;;
18853;SDS011;9556;49.374;19.446;2023-11-22T04:22:11;2.17;;;1.70;;
18853;SDS011;9556;49.374;19.446;2023-11-22T04:24:40;2.15;;;1.60;;
18853;SDS011;9556;49.374;19.446;2023-11-22T04:27:07;2.67;;;1.73;;
18853;SDS011;9556;49.374;19.446;2023-11-22T04:29:35;1.88;;;1.48;;
18853;SDS011;9556;49.374;19.446;2023-11-22T04:32:02;2.63;;;1.70;;
18853;SDS011;9556;49.374;19.446;2023-11-22T04:34:29;2.58;;;1.60;;
18853;SDS011;9556;49.374;19.446;2023-11-22T04:36:56;2.67;;;1.80;;
18853;SDS011;9556;49.374;19.446;2023-11-22T04:39:23;1.65;;;1.30;;
18853;SDS011;9556;49.374;19.446;2023-11-22T04:41:52;2.97;;;1.70;;
18853;SDS011;9556;49.374;19.446;2023-11-22T04:44:19;2.10;;;1.45;;
18853;SDS011;9556;49.374;19.446;2023-11-22T04:46:46;2.22;;;1.52;;
18853;SDS011;9556;49.374;19.446;2023-11-22T04:49:13;2.35;;;1.60;;
18853;SDS011;9556;49.374;19.446;2023-11-22T04:51:40;1.95;;;1.60;;
18853;SDS011;9556;49.374;19.446;2023-11-22T04:54:09;2.33;;;1.58;;
18853;SDS011;9556;49.374;19.446;2023-11-22T04:56:36;2.63;;;1.60;;
18853;SDS011;9556;49.374;19.446;2023-11-22T04:59:05;2.88;;;1.73;;
18853;SDS011;9556;49.374;19.446;2023-11-22T05:01:32;2.78;;;1.80;;
18853;SDS011;9556;49.374;19.446;2023-11-22T05:03:59;2.47;;;1.70;;
18853;SDS011;9556;49.374;19.446;2023-11-22T05:06:26;2.33;;;1.77;;
18853;SDS011;9556;49.374;19.446;2023-11-22T05:08:54;2.53;;;1.80;;
18853;SDS011;9556;49.374;19.446;2023-11-22T05:11:21;2.65;;;1.80;;
18853;SDS011;9556;49.374;19.446;2023-11-22T05:13:48;2.22;;;1.67;;
18853;SDS011;9556;49.374;19.446;2023-11-22T05:16:17;2.28;;;1.60;;
18853;SDS011;9556;49.374;19.446;2023-11-22T05:18:44;2.28;;;1.70;;
18853;SDS011;9556;49.374;19.446;2023-11-22T05:21:12;4.35;;;1.67;;
18853;SDS011;9556;49.374;19.446;2023-11-22T05:23:39;2.58;;;1.83;;
18853;SDS011;9556;49.374;19.446;2023-11-22T05:26:06;2.25;;;1.80;;
18853;SDS011;9556;49.374;19.446;2023-11-22T05:28:33;1.95;;;1.65;;
18853;SDS011;9556;49.374;19.446;2023-11-22T05:31:00;2.50;;;1.90;;
18853;SDS011;9556;49.374;19.446;2023-11-22T05:33:29;2.53;;;1.73;;
18853;SDS011;9556;49.374;19.446;2023-11-22T05:35:57;1.90;;;1.58;;
18853;SDS011;9556;49.374;19.446;2023-11-22T05:38:24;5.43;;;2.13;;
18853;SDS011;9556;49.374;19.446;2023-11-22T05:40:51;2.88;;;1.85;;
18853;SDS011;9556;49.374;19.446;2023-11-22T05:43:19;5.93;;;1.85;;
18853;SDS011;9556;49.374;19.446;2023-11-22T05:45:50;5.95;;;1.98;;
18853;SDS011;9556;49.374;19.446;2023-11-22T05:48:17;5.25;;;2.00;;
18853;SDS011;9556;49.374;19.446;2023-11-22T05:50:46;6.05;;;2.45;;
18853;SDS011;9556;49.374;19.446;2023-11-22T05:53:14;9.45;;;2.30;;
18853;SDS011;9556;49.374;19.446;2023-11-22T05:55:44;5.63;;;2.20;;
18853;SDS011;9556;49.374;19.446;2023-11-22T05:58:12;7.53;;;2.38;;
18853;SDS011;9556;49.374;19.446;2023-11-22T06:00:41;6.80;;;2.30;;
18853;SDS011;9556;49.374;19.446;2023-11-22T06:03:08;4.60;;;2.28;;
18853;SDS011;9556;49.374;19.446;2023-11-22T06:05:35;4.20;;;2.35;;
18853;SDS011;9556;49.374;19.446;2023-11-22T06:08:04;3.78;;;2.30;;
18853;SDS011;9556;49.374;19.446;2023-11-22T06:10:31;5.65;;;2.90;;
18853;SDS011;9556;49.374;19.446;2023-11-22T06:12:59;7.68;;;2.50;;
18853;SDS011;9556;49.374;19.446;2023-11-22T06:15:26;7.68;;;2.47;;
18853;SDS011;9556;49.374;19.446;2023-11-22T06:17:53;5.45;;;2.40;;
18853;SDS011;9556;49.374;19.446;2023-11-22T06:20:20;4.57;;;2.65;;
18853;SDS011;9556;49.374;19.446;2023-11-22T06:22:49;4.13;;;2.30;;
18853;SDS011;9556;49.374;19.446;2023-11-22T06:25:17;5.25;;;2.38;;
18853;SDS011;9556;49.374;19.446;2023-11-22T06:27:45;9.20;;;5.00;;
18853;SDS011;9556;49.374;19.446;2023-11-22T06:30:12;15.15;;;8.35;;
18853;SDS011;9556;49.374;19.446;2023-11-22T06:32:40;24.98;;;14.98;;
18853;SDS011;9556;49.374;19.446;2023-11-22T06:35:08;18.33;;;11.68;;
18853;SDS011;9556;49.374;19.446;2023-11-22T06:37:36;9.63;;;6.75;;
18853;SDS011;9556;49.374;19.446;2023-11-22T06:40:04;7.13;;;4.70;;
18853;SDS011;9556;49.374;19.446;2023-11-22T06:42:32;7.10;;;4.47;;
18853;SDS011;9556;49.374;19.446;2023-11-22T06:45:00;5.18;;;3.83;;
18853;SDS011;9556;49.374;19.446;2023-11-22T06:47:27;6.97;;;3.50;;
18853;SDS011;9556;49.374;19.446;2023-11-22T06:49:54;5.18;;;3.35;;
18853;SDS011;9556;49.374;19.446;2023-11-22T06:52:21;7.03;;;3.10;;
18853;SDS011;9556;49.374;19.446;2023-11-22T06:54:48;7.35;;;3.13;;
18853;SDS011;9556;49.374;19.446;2023-11-22T06:57:16;4.78;;;3.17;;
18853;SDS011;9556;49.374;19.446;2023-11-22T06:59:44;5.28;;;3.17;;
18853;SDS011;9556;49.374;19.446;2023-11-22T07:02:11;4.28;;;3.10;;
18853;SDS011;9556;49.374;19.446;2023-11-22T07:04:39;6.20;;;3.55;;
18853;SDS011;9556;49.374;19.446;2023-11-22T07:07:06;4.15;;;2.90;;
18853;SDS011;9556;49.374;19.446;2023-11-22T07:09:36;5.55;;;2.90;;
18853;SDS011;9556;49.374;19.446;2023-11-22T07:12:04;4.30;;;2.88;;
18853;SDS011;9556;49.374;19.446;2023-11-22T07:14:32;4.03;;;2.90;;
18853;SDS011;9556;49.374;19.446;2023-11-22T07:17:01;5.70;;;3.00;;
18853;SDS011;9556;49.374;19.446;2023-11-22T07:19:28;5.10;;;3.13;;
18853;SDS011;9556;49.374;19.446;2023-11-22T07:21:55;5.78;;;3.30;;
18853;SDS011;9556;49.374;19.446;2023-11-22T07:24:23;5.55;;;3.00;;
18853;SDS011;9556;49.374;19.446;2023-11-22T07:26:50;4.78;;;3.40;;
18853;SDS011;9556;49.374;19.446;2023-11-22T07:29:18;6.57;;;4.40;;
18853;SDS011;9556;49.374;19.446;2023-11-22T07:31:46;5.38;;;3.90;;
18853;SDS011;9556;49.374;19.446;2023-11-22T07:34:14;5.15;;;3.55;;
18853;SDS011;9556;49.374;19.446;2023-11-22T07:36:43;6.95;;;4.28;;
18853;SDS011;9556;49.374;19.446;2023-11-22T07:39:12;5.13;;;3.60;;
18853;SDS011;9556;49.374;19.446;2023-11-22T07:41:39;6.85;;;3.60;;
18853;SDS011;9556;49.374;19.446;2023-11-22T07:44:06;6.22;;;3.30;;
18853;SDS011;9556;49.374;19.446;2023-11-22T07:46:34;4.10;;;3.17;;
18853;SDS011;9556;49.374;19.446;2023-11-22T07:49:02;5.10;;;3.38;;
18853;SDS011;9556;49.374;19.446;2023-11-22T07:51:31;4.85;;;3.40;;
18853;SDS011;9556;49.374;19.446;2023-11-22T07:53:58;3.70;;;2.97;;
18853;SDS011;9556;49.374;19.446;2023-11-22T07:56:25;3.75;;;3.03;;
18853;SDS011;9556;49.374;19.446;2023-11-22T07:58:52;7.40;;;3.38;;
18853;SDS011;9556;49.374;19.446;2023-11-22T08:01:20;4.80;;;3.28;;
18853;SDS011;9556;49.374;19.446;2023-11-22T08:03:47;5.45;;;3.35;;
18853;SDS011;9556;49.374;19.446;2023-11-22T08:06:16;5.13;;;3.30;;
18853;SDS011;9556;49.374;19.446;2023-11-22T08:08:45;7.95;;;3.25;;
18853;SDS011;9556;49.374;19.446;2023-11-22T08:11:12;3.70;;;2.88;;
18853;SDS011;9556;49.374;19.446;2023-11-22T08:13:41;6.20;;;4.38;;
18853;SDS011;9556;49.374;19.446;2023-11-22T08:16:09;6.45;;;3.90;;
18853;SDS011;9556;49.374;19.446;2023-11-22T08:18:38;6.30;;;3.10;;
18853;SDS011;9556;49.374;19.446;2023-11-22T08:21:05;6.07;;;3.33;;
18853;SDS011;9556;49.374;19.446;2023-11-22T08:23:33;5.45;;;3.30;;
18853;SDS011;9556;49.374;19.446;2023-11-22T08:26:01;4.35;;;3.10;;
18853;SDS011;9556;49.374;19.446;2023-11-22T08:28:29;6.45;;;3.42;;
18853;SDS011;9556;49.374;19.446;2023-11-22T08:30:56;4.88;;;3.35;;
18853;SDS011;9556;49.374;19.446;2023-11-22T08:33:24;4.35;;;3.13;;
18853;SDS011;9556;49.374;19.446;2023-11-22T08:35:51;4.55;;;3.25;;
18853;SDS011;9556;49.374;19.446;2023-11-22T08:38:23;5.97;;;3.10;;
18853;SDS011;9556;49.374;19.446;2023-11-22T08:40:51;4.72;;;2.92;;
18853;SDS011;9556;49.374;19.446;2023-11-22T08:43:21;4.65;;;3.47;;
18853;SDS011;9556;49.374;19.446;2023-11-22T08:45:51;4.38;;;3.20;;
18853;SDS011;9556;49.374;19.446;2023-11-22T08:48:18;3.95;;;2.83;;
18853;SDS011;9556;49.374;19.446;2023-11-22T08:50:45;4.40;;;2.90;;
18853;SDS011;9556;49.374;19.446;2023-11-22T08:53:13;8.73;;;3.40;;
18853;SDS011;9556;49.374;19.446;2023-11-22T08:55:40;4.85;;;3.40;;
18853;SDS011;9556;49.374;19.446;2023-11-22T08:58:08;5.13;;;3.45;;
18853;SDS011;9556;49.374;19.446;2023-11-22T09:00:38;9.18;;;3.03;;
18853;SDS011;9556;49.374;19.446;2023-11-22T09:03:06;4.30;;;3.08;;
18853;SDS011;9556;49.374;19.446;2023-11-22T09:05:33;6.60;;;3.20;;
18853;SDS011;9556;49.374;19.446;2023-11-22T09:08:01;6.43;;;3.00;;
18853;SDS011;9556;49.374;19.446;2023-11-22T09:10:29;8.40;;;3.20;;
18853;SDS011;9556;49.374;19.446;2023-11-22T09:12:56;6.35;;;3.40;;
18853;SDS011;9556;49.374;19.446;2023-11-22T09:15:25;5.18;;;3.08;;
18853;SDS011;9556;49.374;19.446;2023-11-22T09:17:55;7.68;;;3.38;;
18853;SDS011;9556;49.374;19.446;2023-11-22T09:20:23;5.85;;;3.33;;
18853;SDS011;9556;49.374;19.446;2023-11-22T09:22:51;5.20;;;3.20;;
18853;SDS011;9556;49.374;19.446;2023-11-22T09:25:20;4.57;;;2.85;;
18853;SDS011;9556;49.374;19.446;2023-11-22T09:27:48;5.60;;;3.28;;
18853;SDS011;9556;49.374;19.446;2023-11-22T09:30:19;4.57;;;3.08;;
18853;SDS011;9556;49.374;19.446;2023-11-22T09:32:58;7.25;;;3.22;;
18853;SDS011;9556;49.374;19.446;2023-11-22T09:35:26;3.60;;;2.97;;
18853;SDS011;9556;49.374;19.446;2023-11-22T09:37:54;9.43;;;3.03;;
18853;SDS011;9556;49.374;19.446;2023-11-22T09:40:21;6.28;;;3.25;;
18853;SDS011;9556;49.374;19.446;2023-11-22T09:42:49;7.13;;;3.25;;
18853;SDS011;9556;49.374;19.446;2023-11-22T09:45:18;5.18;;;3.10;;
18853;SDS011;9556;49.374;19.446;2023-11-22T09:47:45;5.65;;;3.20;;
18853;SDS011;9556;49.374;19.446;2023-11-22T09:50:17;7.28;;;3.40;;
18853;SDS011;9556;49.374;19.446;2023-11-22T09:52:46;6.03;;;3.35;;
18853;SDS011;9556;49.374;19.446;2023-11-22T09:55:16;6.60;;;3.10;;
18853;SDS011;9556;49.374;19.446;2023-11-22T09:57:43;5.80;;;3.10;;
18853;SDS011;9556;49.374;19.446;2023-11-22T10:00:11;8.40;;;5.35;;
18853;SDS011;9556;49.374;19.446;2023-11-22T10:02:39;5.43;;;4.07;;
18853;SDS011;9556;49.374;19.446;2023-11-22T10:05:07;4.75;;;3.78;;
18853;SDS011;9556;49.374;19.446;2023-11-22T10:07:36;5.35;;;3.47;;
18853;SDS011;9556;49.374;19.446;2023-11-22T10:10:03;4.60;;;3.30;;
18853;SDS011;9556;49.374;19.446;2023-11-22T10:12:32;5.07;;;3.50;;
18853;SDS011;9556;49.374;19.446;2023-11-22T10:15:11;5.63;;;3.95;;
18853;SDS011;9556;49.374;19.446;2023-11-22T10:17:38;6.60;;;4.25;;
18853;SDS011;9556;49.374;19.446;2023-11-22T10:20:06;8.10;;;4.70;;
18853;SDS011;9556;49.374;19.446;2023-11-22T10:22:46;7.78;;;4.40;;
18853;SDS011;9556;49.374;19.446;2023-11-22T10:25:14;5.70;;;4.10;;
18853;SDS011;9556;49.374;19.446;2023-11-22T10:27:43;5.93;;;3.95;;
18853;SDS011;9556;49.374;19.446;2023-11-22T10:30:10;8.25;;;4.00;;
18853;SDS011;9556;49.374;19.446;2023-11-22T10:32:37;5.53;;;4.47;;
18853;SDS011;9556;49.374;19.446;2023-11-22T10:35:05;6.45;;;4.53;;
18853;SDS011;9556;49.374;19.446;2023-11-22T10:37:32;7.43;;;5.72;;
18853;SDS011;9556;49.374;19.446;2023-11-22T10:40:01;21.70;;;12.35;;
18853;SDS011;9556;49.374;19.446;2023-11-22T10:42:30;14.70;;;8.75;;
18853;SDS011;9556;49.374;19.446;2023-11-22T10:44:58;9.07;;;6.13;;
18853;SDS011;9556;49.374;19.446;2023-11-22T10:47:28;6.82;;;4.88;;
18853;SDS011;9556;49.374;19.446;2023-11-22T10:49:56;6.95;;;4.78;;
18853;SDS011;9556;49.374;19.446;2023-11-22T10:52:26;6.35;;;4.70;;
18853;SDS011;9556;49.374;19.446;2023-11-22T10:54:55;7.57;;;4.47;;
18853;SDS011;9556;49.374;19.446;2023-11-22T10:57:25;5.50;;;4.20;;
18853;SDS011;9556;49.374;19.446;2023-11-22T10:59:53;10.32;;;6.72;;
18853;SDS011;9556;49.374;19.446;2023-11-22T11:02:21;9.82;;;6.60;;
18853;SDS011;9556;49.374;19.446;2023-11-22T11:04:51;6.68;;;4.88;;
18853;SDS011;9556;49.374;19.446;2023-11-22T11:07:20;7.53;;;4.72;;
18853;SDS011;9556;49.374;19.446;2023-11-22T11:09:48;7.45;;;4.80;;
18853;SDS011;9556;49.374;19.446;2023-11-22T11:12:17;6.93;;;4.78;;
18853;SDS011;9556;49.374;19.446;2023-11-22T11:14:47;9.73;;;6.70;;
18853;SDS011;9556;49.374;19.446;2023-11-22T11:17:15;10.05;;;6.25;;
18853;SDS011;9556;49.374;19.446;2023-11-22T11:19:43;10.15;;;7.30;;
18853;SDS011;9556;49.374;19.446;2023-11-22T11:22:10;13.18;;;8.60;;
18853;SDS011;9556;49.374;19.446;2023-11-22T11:24:38;11.65;;;7.60;;
18853;SDS011;9556;49.374;19.446;2023-11-22T11:27:06;16.08;;;10.05;;
18853;SDS011;9556;49.374;19.446;2023-11-22T11:29:33;14.52;;;9.27;;
18853;SDS011;9556;49.374;19.446;2023-11-22T11:32:03;13.40;;;9.00;;
18853;SDS011;9556;49.374;19.446;2023-11-22T11:34:31;13.55;;;9.32;;
18853;SDS011;9556;49.374;19.446;2023-11-22T11:36:59;11.52;;;7.78;;
18853;SDS011;9556;49.374;19.446;2023-11-22T11:39:26;10.63;;;7.60;;
18853;SDS011;9556;49.374;19.446;2023-11-22T11:42:08;9.80;;;6.57;;
18853;SDS011;9556;49.374;19.446;2023-11-22T11:44:35;11.38;;;7.13;;
18853;SDS011;9556;49.374;19.446;2023-11-22T11:47:13;11.38;;;7.68;;
18853;SDS011;9556;49.374;19.446;2023-11-22T11:49:41;12.15;;;8.00;;
18853;SDS011;9556;49.374;19.446;2023-11-22T11:52:08;9.95;;;6.75;;
18853;SDS011;9556;49.374;19.446;2023-11-22T11:54:35;8.40;;;6.20;;
18853;SDS011;9556;49.374;19.446;2023-11-22T11:57:04;9.52;;;6.20;;
18853;SDS011;9556;49.374;19.446;2023-11-22T11:59:32;8.90;;;6.45;;
18853;SDS011;9556;49.374;19.446;2023-11-22T12:02:00;7.80;;;5.82;;
18853;SDS011;9556;49.374;19.446;2023-11-22T12:04:32;8.82;;;5.60;;
18853;SDS011;9556;49.374;19.446;2023-11-22T12:06:59;9.27;;;5.55;;
18853;SDS011;9556;49.374;19.446;2023-11-22T12:09:26;7.28;;;4.88;;
18853;SDS011;9556;49.374;19.446;2023-11-22T12:11:54;6.90;;;5.10;;
18853;SDS011;9556;49.374;19.446;2023-11-22T12:14:22;7.97;;;5.22;;
18853;SDS011;9556;49.374;19.446;2023-11-22T12:16:50;7.80;;;5.50;;
18853;SDS011;9556;49.374;19.446;2023-11-22T12:19:22;6.97;;;4.80;;
18853;SDS011;9556;49.374;19.446;2023-11-22T12:21:51;6.32;;;4.82;;
18853;SDS011;9556;49.374;19.446;2023-11-22T12:24:18;7.88;;;4.97;;
18853;SDS011;9556;49.374;19.446;2023-11-22T12:26:47;6.70;;;4.90;;
18853;SDS011;9556;49.374;19.446;2023-11-22T12:29:15;7.45;;;4.90;;
18853;SDS011;9556;49.374;19.446;2023-11-22T12:31:43;6.75;;;4.50;;
18853;SDS011;9556;49.374;19.446;2023-11-22T12:34:11;6.60;;;4.63;;
18853;SDS011;9556;49.374;19.446;2023-11-22T12:36:39;7.53;;;4.80;;
18853;SDS011;9556;49.374;19.446;2023-11-22T12:39:08;6.68;;;4.65;;
18853;SDS011;9556;49.374;19.446;2023-11-22T12:41:41;6.07;;;4.40;;
18853;SDS011;9556;49.374;19.446;2023-11-22T12:44:08;6.47;;;4.43;;
18853;SDS011;9556;49.374;19.446;2023-11-22T12:46:48;7.03;;;5.10;;
18853;SDS011;9556;49.374;19.446;2023-11-22T12:49:22;6.22;;;4.70;;
18853;SDS011;9556;49.374;19.446;2023-11-22T12:51:49;6.97;;;4.63;;
18853;SDS011;9556;49.374;19.446;2023-11-22T12:54:18;6.40;;;4.70;;
18853;SDS011;9556;49.374;19.446;2023-11-22T12:56:48;7.50;;;5.18;;
18853;SDS011;9556;49.374;19.446;2023-11-22T12:59:16;6.47;;;4.93;;
18853;SDS011;9556;49.374;19.446;2023-11-22T13:01:44;6.97;;;5.10;;
18853;SDS011;9556;49.374;19.446;2023-11-22T13:04:11;6.22;;;4.60;;
18853;SDS011;9556;49.374;19.446;2023-11-22T13:06:39;6.63;;;4.55;;
18853;SDS011;9556;49.374;19.446;2023-11-22T13:09:06;5.95;;;4.50;;
18853;SDS011;9556;49.374;19.446;2023-11-22T13:11:40;7.40;;;4.60;;
18853;SDS011;9556;49.374;19.446;2023-11-22T13:14:08;6.05;;;4.32;;
18853;SDS011;9556;49.374;19.446;2023-11-22T13:16:39;6.75;;;4.63;;
18853;SDS011;9556;49.374;19.446;2023-11-22T13:19:06;7.43;;;5.28;;
18853;SDS011;9556;49.374;19.446;2023-11-22T13:21:34;7.47;;;5.15;;
18853;SDS011;9556;49.374;19.446;2023-11-22T13:24:01;5.72;;;4.70;;
18853;SDS011;9556;49.374;19.446;2023-11-22T13:26:28;6.95;;;4.82;;
18853;SDS011;9556;49.374;19.446;2023-11-22T13:28:57;6.43;;;4.65;;
18853;SDS011;9556;49.374;19.446;2023-11-22T13:31:24;7.10;;;4.85;;
18853;SDS011;9556;49.374;19.446;2023-11-22T13:33:52;6.85;;;5.00;;
18853;SDS011;9556;49.374;19.446;2023-11-22T13:36:19;6.88;;;4.78;;
18853;SDS011;9556;49.374;19.446;2023-11-22T13:38:46;6.03;;;4.63;;
18853;SDS011;9556;49.374;19.446;2023-11-22T13:41:13;6.30;;;4.40;;
18853;SDS011;9556;49.374;19.446;2023-11-22T13:43:41;6.20;;;4.70;;
18853;SDS011;9556;49.374;19.446;2023-11-22T13:46:09;6.47;;;4.50;;
18853;SDS011;9556;49.374;19.446;2023-11-22T13:48:37;6.72;;;4.72;;
18853;SDS011;9556;49.374;19.446;2023-11-22T13:51:04;6.97;;;4.97;;
18853;SDS011;9556;49.374;19.446;2023-11-22T13:53:33;7.10;;;4.88;;
18853;SDS011;9556;49.374;19.446;2023-11-22T13:56:03;6.82;;;4.93;;
18853;SDS011;9556;49.374;19.446;2023-11-22T13:58:33;8.00;;;5.53;;
18853;SDS011;9556;49.374;19.446;2023-11-22T14:01:01;8.10;;;5.75;;
18853;SDS011;9556;49.374;19.446;2023-11-22T14:03:32;9.90;;;6.90;;
18853;SDS011;9556;49.374;19.446;2023-11-22T14:06:00;12.35;;;8.38;;
18853;SDS011;9556;49.374;19.446;2023-11-22T14:08:30;10.98;;;8.15;;
18853;SDS011;9556;49.374;19.446;2023-11-22T14:10:57;12.90;;;8.57;;
18853;SDS011;9556;49.374;19.446;2023-11-22T14:13:24;14.57;;;10.27;;
18853;SDS011;9556;49.374;19.446;2023-11-22T14:15:51;10.88;;;8.00;;
18853;SDS011;9556;49.374;19.446;2023-11-22T14:18:18;10.82;;;7.38;;
18853;SDS011;9556;49.374;19.446;2023-11-22T14:20:47;10.70;;;7.43;;
18853;SDS011;9556;49.374;19.446;2023-11-22T14:23:14;9.52;;;6.90;;
18853;SDS011;9556;49.374;19.446;2023-11-22T14:25:42;9.23;;;6.78;;
18853;SDS011;9556;49.374;19.446;2023-11-22T14:28:09;9.55;;;7.03;;
18853;SDS011;9556;49.374;19.446;2023-11-22T14:30:36;9.93;;;6.45;;
18853;SDS011;9556;49.374;19.446;2023-11-22T14:33:03;10.52;;;7.40;;
18853;SDS011;9556;49.374;19.446;2023-11-22T14:35:32;9.02;;;6.65;;
18853;SDS011;9556;49.374;19.446;2023-11-22T14:38:02;8.63;;;6.18;;
18853;SDS011;9556;49.374;19.446;2023-11-22T14:40:30;8.35;;;6.10;;
18853;SDS011;9556;49.374;19.446;2023-11-22T14:42:58;8.65;;;6.15;;
18853;SDS011;9556;49.374;19.446;2023-11-22T14:45:27;8.88;;;6.22;;
18853;SDS011;9556;49.374;19.446;2023-11-22T14:47:55;7.03;;;5.57;;
18853;SDS011;9556;49.374;19.446;2023-11-22T14:50:23;8.32;;;5.68;;